sensor_id;sensor_type;location;lat;lon;timestamp;temperature;humidity
16289;DHT22;26089;43.538;5.250;2022-11-04T00:01:33;13.60;99.90
16289;DHT22;26089;43.538;5.250;2022-11-04T00:04:01;13.60;99.90
16289;DHT22;26089;43.538;5.250;2022-11-04T00:06:29;13.60;99.90
16289;DHT22;26089;43.538;5.250;2022-11-04T00:08:57;13.50;99.90
16289;DHT22;26089;43.538;5.250;2022-11-04T00:11:25;13.50;99.90
16289;DHT22;26089;43.538;5.250;2022-11-04T00:14:11;13.40;99.90
16289;DHT22;26089;43.538;5.250;2022-11-04T00:16:39;13.30;99.90
16289;DHT22;26089;43.538;5.250;2022-11-04T00:19:23;13.20;99.90
16289;DHT22;26089;43.538;5.250;2022-11-04T00:21:52;13.20;99.90
16289;DHT22;26089;43.538;5.250;2022-11-04T00:24:51;13.20;99.90
16289;DHT22;26089;43.538;5.250;2022-11-04T00:27:35;13.10;99.90
16289;DHT22;26089;43.538;5.250;2022-11-04T00:30:20;13.10;99.90
16289;DHT22;26089;43.538;5.250;2022-11-04T00:32:47;13.00;99.90
16289;DHT22;26089;43.538;5.250;2022-11-04T00:35:32;13.00;99.90
16289;DHT22;26089;43.538;5.250;2022-11-04T00:38:00;12.90;99.90
16289;DHT22;26089;43.538;5.250;2022-11-04T00:40:27;12.90;99.90
16289;DHT22;26089;43.538;5.250;2022-11-04T00:42:54;12.80;99.90
16289;DHT22;26089;43.538;5.250;2022-11-04T00:45:21;12.80;99.90
16289;DHT22;26089;43.538;5.250;2022-11-04T00:47:48;12.80;99.90
16289;DHT22;26089;43.538;5.250;2022-11-04T00:50:15;12.90;99.90
16289;DHT22;26089;43.538;5.250;2022-11-04T00:52:42;12.90;99.90
16289;DHT22;26089;43.538;5.250;2022-11-04T00:55:11;12.90;99.90
16289;DHT22;26089;43.538;5.250;2022-11-04T00:57:38;12.80;99.90
16289;DHT22;26089;43.538;5.250;2022-11-04T01:00:06;13.30;99.90
16289;DHT22;26089;43.538;5.250;2022-11-04T01:02:33;12.80;99.90
16289;DHT22;26089;43.538;5.250;2022-11-04T01:05:00;12.80;99.90
16289;DHT22;26089;43.538;5.250;2022-11-04T01:07:27;12.70;99.90
16289;DHT22;26089;43.538;5.250;2022-11-04T01:09:54;12.60;99.90
16289;DHT22;26089;43.538;5.250;2022-11-04T01:12:23;12.50;99.90
16289;DHT22;26089;43.538;5.250;2022-11-04T01:14:50;12.50;99.90
16289;DHT22;26089;43.538;5.250;2022-11-04T01:17:17;12.40;99.90
16289;DHT22;26089;43.538;5.250;2022-11-04T01:19:44;12.30;99.90
16289;DHT22;26089;43.538;5.250;2022-11-04T01:22:11;12.30;99.90
16289;DHT22;26089;43.538;5.250;2022-11-04T01:24:38;12.30;99.90
16289;DHT22;26089;43.538;5.250;2022-11-04T01:27:05;12.20;99.90
16289;DHT22;26089;43.538;5.250;2022-11-04T01:29:33;12.20;99.90
16289;DHT22;26089;43.538;5.250;2022-11-04T01:32:00;12.30;99.90
16289;DHT22;26089;43.538;5.250;2022-11-04T01:34:27;12.30;99.90
16289;DHT22;26089;43.538;5.250;2022-11-04T01:36:54;12.30;99.90
16289;DHT22;26089;43.538;5.250;2022-11-04T01:39:21;12.20;99.90
16289;DHT22;26089;43.538;5.250;2022-11-04T01:41:48;12.20;99.90
16289;DHT22;26089;43.538;5.250;2022-11-04T01:47:33;12.10;99.90
16289;DHT22;26089;43.538;5.250;2022-11-04T01:50:07;12.20;99.90
16289;DHT22;26089;43.538;5.250;2022-11-04T01:52:44;12.10;99.90
16289;DHT22;26089;43.538;5.250;2022-11-04T01:55:15;12.20;99.90
16289;DHT22;26089;43.538;5.250;2022-11-04T01:57:46;12.00;99.90
16289;DHT22;26089;43.538;5.250;2022-11-04T02:00:15;11.90;99.90
16289;DHT22;26089;43.538;5.250;2022-11-04T02:02:52;11.90;99.90
16289;DHT22;26089;43.538;5.250;2022-11-04T02:05:20;11.80;99.90
16289;DHT22;26089;43.538;5.250;2022-11-04T02:07:49;11.80;99.90
16289;DHT22;26089;43.538;5.250;2022-11-04T02:10:19;11.80;99.90
16289;DHT22;26089;43.538;5.250;2022-11-04T02:12:48;11.80;99.90
16289;DHT22;26089;43.538;5.250;2022-11-04T02:15:14;11.90;99.90
16289;DHT22;26089;43.538;5.250;2022-11-04T02:24:03;11.70;99.90
16289;DHT22;26089;43.538;5.250;2022-11-04T02:27:08;11.60;99.90
16289;DHT22;26089;43.538;5.250;2022-11-04T02:30:04;11.60;99.90
16289;DHT22;26089;43.538;5.250;2022-11-04T02:35:41;11.60;99.90
16289;DHT22;26089;43.538;5.250;2022-11-04T02:38:14;11.50;99.90
16289;DHT22;26089;43.538;5.250;2022-11-04T02:40:50;11.40;99.90
16289;DHT22;26089;43.538;5.250;2022-11-04T02:43:24;11.30;99.90
16289;DHT22;26089;43.538;5.250;2022-11-04T02:46:00;11.40;99.90
16289;DHT22;26089;43.538;5.250;2022-11-04T02:48:34;11.40;99.90
16289;DHT22;26089;43.538;5.250;2022-11-04T02:51:06;11.20;99.90
16289;DHT22;26089;43.538;5.250;2022-11-04T02:53:39;11.20;99.90
16289;DHT22;26089;43.538;5.250;2022-11-04T02:56:07;11.10;99.90
16289;DHT22;26089;43.538;5.250;2022-11-04T02:58:40;11.10;99.90
16289;DHT22;26089;43.538;5.250;2022-11-04T03:01:13;11.10;99.90
16289;DHT22;26089;43.538;5.250;2022-11-04T03:03:46;11.10;99.90
16289;DHT22;26089;43.538;5.250;2022-11-04T03:06:16;11.00;99.90
16289;DHT22;26089;43.538;5.250;2022-11-04T03:08:47;10.90;99.90
16289;DHT22;26089;43.538;5.250;2022-11-04T03:11:17;10.90;99.90
16289;DHT22;26089;43.538;5.250;2022-11-04T03:13:48;10.80;99.90
16289;DHT22;26089;43.538;5.250;2022-11-04T03:16:20;10.80;99.90
16289;DHT22;26089;43.538;5.250;2022-11-04T03:18:56;10.80;99.90
16289;DHT22;26089;43.538;5.250;2022-11-04T03:21:26;10.90;99.90
16289;DHT22;26089;43.538;5.250;2022-11-04T03:23:54;10.90;99.90
16289;DHT22;26089;43.538;5.250;2022-11-04T03:26:28;10.90;99.90
16289;DHT22;26089;43.538;5.250;2022-11-04T03:29:08;10.90;99.90
16289;DHT22;26089;43.538;5.250;2022-11-04T03:31:43;10.90;99.90
16289;DHT22;26089;43.538;5.250;2022-11-04T03:34:10;10.90;99.90
16289;DHT22;26089;43.538;5.250;2022-11-04T03:36:37;10.80;99.90
16289;DHT22;26089;43.538;5.250;2022-11-04T03:39:05;10.80;99.90
16289;DHT22;26089;43.538;5.250;2022-11-04T03:41:34;10.70;99.90
16289;DHT22;26089;43.538;5.250;2022-11-04T03:44:04;10.70;99.90
16289;DHT22;26089;43.538;5.250;2022-11-04T03:46:31;10.50;99.90
16289;DHT22;26089;43.538;5.250;2022-11-04T03:49:01;10.70;99.90
16289;DHT22;26089;43.538;5.250;2022-11-04T03:51:28;10.70;99.90
16289;DHT22;26089;43.538;5.250;2022-11-04T03:53:56;10.10;99.90
16289;DHT22;26089;43.538;5.250;2022-11-04T03:56:36;10.60;99.90
16289;DHT22;26089;43.538;5.250;2022-11-04T03:59:22;10.60;99.90
16289;DHT22;26089;43.538;5.250;2022-11-04T04:15:28;10.60;99.90
16289;DHT22;26089;43.538;5.250;2022-11-04T04:18:01;10.70;99.90
16289;DHT22;26089;43.538;5.250;2022-11-04T04:20:31;10.50;99.90
16289;DHT22;26089;43.538;5.250;2022-11-04T04:23:03;10.30;99.90
16289;DHT22;26089;43.538;5.250;2022-11-04T04:25:53;10.10;99.90
16289;DHT22;26089;43.538;5.250;2022-11-04T04:28:39;9.90;99.90
16289;DHT22;26089;43.538;5.250;2022-11-04T04:31:11;9.80;99.90
16289;DHT22;26089;43.538;5.250;2022-11-04T04:34:00;9.60;99.90
16289;DHT22;26089;43.538;5.250;2022-11-04T04:36:29;9.50;99.90
16289;DHT22;26089;43.538;5.250;2022-11-04T04:38:57;9.30;99.90
16289;DHT22;26089;43.538;5.250;2022-11-04T04:41:42;9.40;99.90
16289;DHT22;26089;43.538;5.250;2022-11-04T04:44:27;9.40;99.90
16289;DHT22;26089;43.538;5.250;2022-11-04T04:47:15;9.30;99.90
16289;DHT22;26089;43.538;5.250;2022-11-04T04:49:51;9.20;99.90
16289;DHT22;26089;43.538;5.250;2022-11-04T04:52:18;9.20;99.90
16289;DHT22;26089;43.538;5.250;2022-11-04T04:54:46;9.20;99.90
16289;DHT22;26089;43.538;5.250;2022-11-04T04:57:13;9.10;99.90
16289;DHT22;26089;43.538;5.250;2022-11-04T04:59:40;9.10;99.90
16289;DHT22;26089;43.538;5.250;2022-11-04T05:02:07;9.10;99.90
16289;DHT22;26089;43.538;5.250;2022-11-04T05:04:35;9.20;99.90
16289;DHT22;26089;43.538;5.250;2022-11-04T05:07:02;9.50;99.90
16289;DHT22;26089;43.538;5.250;2022-11-04T05:09:31;9.40;99.90
16289;DHT22;26089;43.538;5.250;2022-11-04T05:11:58;9.30;99.90
16289;DHT22;26089;43.538;5.250;2022-11-04T05:14:25;9.40;99.90
16289;DHT22;26089;43.538;5.250;2022-11-04T05:16:52;9.40;99.90
16289;DHT22;26089;43.538;5.250;2022-11-04T05:19:19;9.50;99.90
16289;DHT22;26089;43.538;5.250;2022-11-04T05:21:48;9.50;99.90
16289;DHT22;26089;43.538;5.250;2022-11-04T05:24:15;9.50;99.90
16289;DHT22;26089;43.538;5.250;2022-11-04T05:26:42;9.40;99.90
16289;DHT22;26089;43.538;5.250;2022-11-04T05:29:09;9.30;99.90
16289;DHT22;26089;43.538;5.250;2022-11-04T05:31:37;8.60;99.90
16289;DHT22;26089;43.538;5.250;2022-11-04T05:34:04;9.30;99.90
16289;DHT22;26089;43.538;5.250;2022-11-04T05:36:31;8.60;99.90
16289;DHT22;26089;43.538;5.250;2022-11-04T05:39:00;9.20;99.90
16289;DHT22;26089;43.538;5.250;2022-11-04T05:41:27;9.10;99.90
16289;DHT22;26089;43.538;5.250;2022-11-04T05:43:56;9.10;99.90
16289;DHT22;26089;43.538;5.250;2022-11-04T05:46:23;9.10;99.90
16289;DHT22;26089;43.538;5.250;2022-11-04T05:48:50;9.10;99.90
16289;DHT22;26089;43.538;5.250;2022-11-04T05:51:20;9.20;99.90
16289;DHT22;26089;43.538;5.250;2022-11-04T05:53:47;9.10;99.90
16289;DHT22;26089;43.538;5.250;2022-11-04T05:56:15;9.10;99.90
16289;DHT22;26089;43.538;5.250;2022-11-04T05:58:42;9.00;99.90
16289;DHT22;26089;43.538;5.250;2022-11-04T06:01:12;9.00;99.90
16289;DHT22;26089;43.538;5.250;2022-11-04T06:03:39;9.00;99.90
16289;DHT22;26089;43.538;5.250;2022-11-04T06:06:06;9.00;99.90
16289;DHT22;26089;43.538;5.250;2022-11-04T06:08:33;9.00;99.90
16289;DHT22;26089;43.538;5.250;2022-11-04T06:11:00;8.70;99.90
16289;DHT22;26089;43.538;5.250;2022-11-04T06:13:31;9.10;99.90
16289;DHT22;26089;43.538;5.250;2022-11-04T06:15:58;9.10;99.90
16289;DHT22;26089;43.538;5.250;2022-11-04T06:18:25;9.20;99.90
16289;DHT22;26089;43.538;5.250;2022-11-04T06:21:09;9.20;99.90
16289;DHT22;26089;43.538;5.250;2022-11-04T06:23:36;9.20;99.90
16289;DHT22;26089;43.538;5.250;2022-11-04T06:26:03;9.30;99.90
16289;DHT22;26089;43.538;5.250;2022-11-04T06:28:32;9.20;99.90
16289;DHT22;26089;43.538;5.250;2022-11-04T06:31:01;9.10;99.90
16289;DHT22;26089;43.538;5.250;2022-11-04T06:33:29;9.10;99.90
16289;DHT22;26089;43.538;5.250;2022-11-04T06:35:56;8.60;99.90
16289;DHT22;26089;43.538;5.250;2022-11-04T06:38:24;9.10;99.90
16289;DHT22;26089;43.538;5.250;2022-11-04T06:40:51;9.20;99.90
16289;DHT22;26089;43.538;5.250;2022-11-04T06:43:18;9.10;99.90
16289;DHT22;26089;43.538;5.250;2022-11-04T06:45:52;9.00;99.90
16289;DHT22;26089;43.538;5.250;2022-11-04T06:48:19;9.20;99.90
16289;DHT22;26089;43.538;5.250;2022-11-04T06:50:46;9.20;99.90
16289;DHT22;26089;43.538;5.250;2022-11-04T06:53:13;9.20;99.90
16289;DHT22;26089;43.538;5.250;2022-11-04T06:55:40;9.20;99.90
16289;DHT22;26089;43.538;5.250;2022-11-04T06:58:07;9.30;99.90
16289;DHT22;26089;43.538;5.250;2022-11-04T07:00:34;9.40;99.90
16289;DHT22;26089;43.538;5.250;2022-11-04T07:03:03;9.80;99.90
16289;DHT22;26089;43.538;5.250;2022-11-04T07:05:31;9.60;99.90
16289;DHT22;26089;43.538;5.250;2022-11-04T07:07:58;9.60;99.90
16289;DHT22;26089;43.538;5.250;2022-11-04T07:10:25;9.70;99.90
16289;DHT22;26089;43.538;5.250;2022-11-04T07:12:52;9.90;99.90
16289;DHT22;26089;43.538;5.250;2022-11-04T07:15:20;10.00;99.90
16289;DHT22;26089;43.538;5.250;2022-11-04T07:17:47;10.00;99.90
16289;DHT22;26089;43.538;5.250;2022-11-04T07:20:15;10.00;99.90
16289;DHT22;26089;43.538;5.250;2022-11-04T07:22:42;10.10;99.90
16289;DHT22;26089;43.538;5.250;2022-11-04T07:25:09;10.10;99.90
16289;DHT22;26089;43.538;5.250;2022-11-04T07:27:36;10.10;99.90
16289;DHT22;26089;43.538;5.250;2022-11-04T07:30:04;10.20;99.90
16289;DHT22;26089;43.538;5.250;2022-11-04T07:32:32;10.30;99.90
16289;DHT22;26089;43.538;5.250;2022-11-04T07:34:59;10.40;99.90
16289;DHT22;26089;43.538;5.250;2022-11-04T07:37:28;10.60;99.90
16289;DHT22;26089;43.538;5.250;2022-11-04T07:39:55;10.70;99.90
16289;DHT22;26089;43.538;5.250;2022-11-04T07:42:22;10.90;99.90
16289;DHT22;26089;43.538;5.250;2022-11-04T07:44:49;11.00;99.90
16289;DHT22;26089;43.538;5.250;2022-11-04T07:47:16;11.20;99.90
16289;DHT22;26089;43.538;5.250;2022-11-04T07:49:43;11.40;99.90
16289;DHT22;26089;43.538;5.250;2022-11-04T07:52:10;11.70;99.90
16289;DHT22;26089;43.538;5.250;2022-11-04T07:54:38;12.40;99.90
16289;DHT22;26089;43.538;5.250;2022-11-04T07:57:05;13.00;99.90
16289;DHT22;26089;43.538;5.250;2022-11-04T07:59:33;13.60;99.90
16289;DHT22;26089;43.538;5.250;2022-11-04T08:02:00;14.60;99.90
16289;DHT22;26089;43.538;5.250;2022-11-04T08:04:27;15.40;99.90
16289;DHT22;26089;43.538;5.250;2022-11-04T08:06:54;15.70;99.90
16289;DHT22;26089;43.538;5.250;2022-11-04T08:09:21;16.40;99.90
16289;DHT22;26089;43.538;5.250;2022-11-04T08:11:49;17.00;99.90
16289;DHT22;26089;43.538;5.250;2022-11-04T08:14:16;17.60;99.90
16289;DHT22;26089;43.538;5.250;2022-11-04T08:16:43;17.60;99.90
16289;DHT22;26089;43.538;5.250;2022-11-04T08:19:10;18.10;99.90
16289;DHT22;26089;43.538;5.250;2022-11-04T08:21:37;17.90;99.90
16289;DHT22;26089;43.538;5.250;2022-11-04T08:24:05;16.70;99.90
16289;DHT22;26089;43.538;5.250;2022-11-04T08:26:32;16.20;99.90
16289;DHT22;26089;43.538;5.250;2022-11-04T08:29:04;15.60;99.90
16289;DHT22;26089;43.538;5.250;2022-11-04T08:31:32;15.20;99.90
16289;DHT22;26089;43.538;5.250;2022-11-04T08:34:00;14.80;99.90
16289;DHT22;26089;43.538;5.250;2022-11-04T08:36:30;14.40;99.90
16289;DHT22;26089;43.538;5.250;2022-11-04T08:38:57;14.10;99.90
16289;DHT22;26089;43.538;5.250;2022-11-04T08:41:27;14.20;99.90
16289;DHT22;26089;43.538;5.250;2022-11-04T08:43:55;14.20;99.90
16289;DHT22;26089;43.538;5.250;2022-11-04T08:46:27;14.20;99.90
16289;DHT22;26089;43.538;5.250;2022-11-04T08:48:54;14.20;99.90
16289;DHT22;26089;43.538;5.250;2022-11-04T08:51:24;14.10;99.90
16289;DHT22;26089;43.538;5.250;2022-11-04T08:53:51;14.20;99.90
16289;DHT22;26089;43.538;5.250;2022-11-04T08:56:20;14.30;99.90
16289;DHT22;26089;43.538;5.250;2022-11-04T08:58:48;14.30;99.90
16289;DHT22;26089;43.538;5.250;2022-11-04T09:01:17;14.30;99.90
16289;DHT22;26089;43.538;5.250;2022-11-04T09:03:47;14.20;99.90
16289;DHT22;26089;43.538;5.250;2022-11-04T09:06:17;14.20;99.90
16289;DHT22;26089;43.538;5.250;2022-11-04T09:08:45;14.30;99.90
16289;DHT22;26089;43.538;5.250;2022-11-04T09:11:14;14.40;99.90
16289;DHT22;26089;43.538;5.250;2022-11-04T09:13:41;14.40;99.90
16289;DHT22;26089;43.538;5.250;2022-11-04T09:16:10;14.40;99.90
16289;DHT22;26089;43.538;5.250;2022-11-04T09:18:38;14.40;99.90
16289;DHT22;26089;43.538;5.250;2022-11-04T09:21:08;14.50;99.90
16289;DHT22;26089;43.538;5.250;2022-11-04T09:23:35;14.60;99.90
16289;DHT22;26089;43.538;5.250;2022-11-04T09:26:04;14.70;99.90
16289;DHT22;26089;43.538;5.250;2022-11-04T09:28:32;14.80;99.90
16289;DHT22;26089;43.538;5.250;2022-11-04T09:31:02;14.80;99.90
16289;DHT22;26089;43.538;5.250;2022-11-04T09:33:30;15.00;99.90
16289;DHT22;26089;43.538;5.250;2022-11-04T09:35:57;15.20;99.90
16289;DHT22;26089;43.538;5.250;2022-11-04T09:38:26;15.50;99.90
16289;DHT22;26089;43.538;5.250;2022-11-04T09:40:53;15.80;99.90
16289;DHT22;26089;43.538;5.250;2022-11-04T09:43:38;16.10;99.90
16289;DHT22;26089;43.538;5.250;2022-11-04T09:46:11;16.30;99.90
16289;DHT22;26089;43.538;5.250;2022-11-04T09:48:43;16.60;99.90
16289;DHT22;26089;43.538;5.250;2022-11-04T09:51:13;16.70;99.90
16289;DHT22;26089;43.538;5.250;2022-11-04T09:53:46;16.80;99.90
16289;DHT22;26089;43.538;5.250;2022-11-04T09:56:17;16.60;99.90
16289;DHT22;26089;43.538;5.250;2022-11-04T09:58:46;16.30;99.90
16289;DHT22;26089;43.538;5.250;2022-11-04T10:01:20;16.20;99.90
16289;DHT22;26089;43.538;5.250;2022-11-04T10:04:05;16.10;99.90
16289;DHT22;26089;43.538;5.250;2022-11-04T10:06:41;16.00;99.90
16289;DHT22;26089;43.538;5.250;2022-11-04T10:09:23;16.30;99.90
16289;DHT22;26089;43.538;5.250;2022-11-04T10:12:02;16.20;99.90
16289;DHT22;26089;43.538;5.250;2022-11-04T10:14:48;16.00;99.90
16289;DHT22;26089;43.538;5.250;2022-11-04T10:17:30;15.90;99.90
16289;DHT22;26089;43.538;5.250;2022-11-04T10:20:14;15.80;99.90
16289;DHT22;26089;43.538;5.250;2022-11-04T10:22:55;15.80;99.90
16289;DHT22;26089;43.538;5.250;2022-11-04T10:25:27;15.60;99.90
16289;DHT22;26089;43.538;5.250;2022-11-04T10:27:57;15.60;99.90
16289;DHT22;26089;43.538;5.250;2022-11-04T10:30:25;15.40;99.90
16289;DHT22;26089;43.538;5.250;2022-11-04T10:33:00;15.20;99.90
16289;DHT22;26089;43.538;5.250;2022-11-04T10:35:31;15.10;99.90
16289;DHT22;26089;43.538;5.250;2022-11-04T10:38:16;15.00;99.90
16289;DHT22;26089;43.538;5.250;2022-11-04T10:40:48;15.00;99.90
16289;DHT22;26089;43.538;5.250;2022-11-04T10:43:20;15.00;99.90
16289;DHT22;26089;43.538;5.250;2022-11-04T10:45:59;15.20;99.90
16289;DHT22;26089;43.538;5.250;2022-11-04T10:48:31;14.60;99.90
16289;DHT22;26089;43.538;5.250;2022-11-04T10:51:01;14.60;99.90
16289;DHT22;26089;43.538;5.250;2022-11-04T10:53:30;14.60;99.90
16289;DHT22;26089;43.538;5.250;2022-11-04T10:56:03;14.70;99.90
16289;DHT22;26089;43.538;5.250;2022-11-04T10:58:35;14.80;99.90
16289;DHT22;26089;43.538;5.250;2022-11-04T11:01:24;14.80;99.90
16289;DHT22;26089;43.538;5.250;2022-11-04T11:03:51;14.60;99.90
16289;DHT22;26089;43.538;5.250;2022-11-04T11:06:25;14.60;99.90
16289;DHT22;26089;43.538;5.250;2022-11-04T11:08:54;14.60;99.90
16289;DHT22;26089;43.538;5.250;2022-11-04T11:11:45;14.60;99.90
16289;DHT22;26089;43.538;5.250;2022-11-04T11:14:17;14.70;99.90
16289;DHT22;26089;43.538;5.250;2022-11-04T11:16:45;14.80;99.90
16289;DHT22;26089;43.538;5.250;2022-11-04T11:19:17;14.80;99.90
16289;DHT22;26089;43.538;5.250;2022-11-04T11:21:46;14.80;99.90
16289;DHT22;26089;43.538;5.250;2022-11-04T11:24:20;15.10;99.90
16289;DHT22;26089;43.538;5.250;2022-11-04T11:26:51;15.70;99.90
16289;DHT22;26089;43.538;5.250;2022-11-04T11:29:22;16.10;99.90
16289;DHT22;26089;43.538;5.250;2022-11-04T11:31:50;16.00;99.90
16289;DHT22;26089;43.538;5.250;2022-11-04T11:34:22;15.80;99.90
16289;DHT22;26089;43.538;5.250;2022-11-04T11:36:52;15.90;99.90
16289;DHT22;26089;43.538;5.250;2022-11-04T11:39:21;15.90;99.90
16289;DHT22;26089;43.538;5.250;2022-11-04T11:41:53;15.90;99.90
16289;DHT22;26089;43.538;5.250;2022-11-04T11:44:25;15.90;99.90
16289;DHT22;26089;43.538;5.250;2022-11-04T11:46:58;16.00;99.90
16289;DHT22;26089;43.538;5.250;2022-11-04T11:49:28;16.20;99.90
16289;DHT22;26089;43.538;5.250;2022-11-04T11:52:14;16.10;99.90
16289;DHT22;26089;43.538;5.250;2022-11-04T11:54:43;16.20;99.90
16289;DHT22;26089;43.538;5.250;2022-11-04T11:57:28;16.10;99.90
16289;DHT22;26089;43.538;5.250;2022-11-04T12:00:01;15.60;99.90
16289;DHT22;26089;43.538;5.250;2022-11-04T12:02:35;15.30;99.90
16289;DHT22;26089;43.538;5.250;2022-11-04T12:05:08;15.10;99.90
16289;DHT22;26089;43.538;5.250;2022-11-04T12:07:42;15.30;99.90
16289;DHT22;26089;43.538;5.250;2022-11-04T12:10:17;16.10;99.90
16289;DHT22;26089;43.538;5.250;2022-11-04T12:12:59;16.60;99.90
16289;DHT22;26089;43.538;5.250;2022-11-04T12:15:39;16.90;99.90
16289;DHT22;26089;43.538;5.250;2022-11-04T12:18:35;17.00;99.90
16289;DHT22;26089;43.538;5.250;2022-11-04T12:21:10;16.50;99.90
16289;DHT22;26089;43.538;5.250;2022-11-04T12:23:45;16.40;99.90
16289;DHT22;26089;43.538;5.250;2022-11-04T12:26:23;16.20;99.90
16289;DHT22;26089;43.538;5.250;2022-11-04T12:32:20;16.20;99.90
16289;DHT22;26089;43.538;5.250;2022-11-04T12:35:00;16.10;99.90
16289;DHT22;26089;43.538;5.250;2022-11-04T12:37:39;16.10;99.90
16289;DHT22;26089;43.538;5.250;2022-11-04T12:40:11;16.00;99.90
16289;DHT22;26089;43.538;5.250;2022-11-04T12:42:51;16.40;99.90
16289;DHT22;26089;43.538;5.250;2022-11-04T12:45:28;16.00;99.90
16289;DHT22;26089;43.538;5.250;2022-11-04T12:48:04;16.10;99.90
16289;DHT22;26089;43.538;5.250;2022-11-04T12:50:46;16.80;99.90
16289;DHT22;26089;43.538;5.250;2022-11-04T12:53:36;17.40;99.90
16289;DHT22;26089;43.538;5.250;2022-11-04T12:56:10;17.80;99.90
16289;DHT22;26089;43.538;5.250;2022-11-04T12:58:52;17.60;99.90
16289;DHT22;26089;43.538;5.250;2022-11-04T13:01:30;17.50;99.90
16289;DHT22;26089;43.538;5.250;2022-11-04T13:04:02;17.40;99.90
16289;DHT22;26089;43.538;5.250;2022-11-04T13:06:35;17.40;99.90
16289;DHT22;26089;43.538;5.250;2022-11-04T13:09:07;17.10;99.90
16289;DHT22;26089;43.538;5.250;2022-11-04T13:11:38;17.10;99.90
16289;DHT22;26089;43.538;5.250;2022-11-04T13:14:12;16.80;99.90
16289;DHT22;26089;43.538;5.250;2022-11-04T13:16:45;17.10;99.90
16289;DHT22;26089;43.538;5.250;2022-11-04T13:19:23;17.30;99.90
16289;DHT22;26089;43.538;5.250;2022-11-04T13:21:53;17.80;99.90
16289;DHT22;26089;43.538;5.250;2022-11-04T13:24:25;17.90;99.90
16289;DHT22;26089;43.538;5.250;2022-11-04T13:26:58;17.70;99.90
16289;DHT22;26089;43.538;5.250;2022-11-04T13:29:27;17.40;99.90
16289;DHT22;26089;43.538;5.250;2022-11-04T13:31:59;17.30;99.90
16289;DHT22;26089;43.538;5.250;2022-11-04T13:34:37;17.20;99.90
16289;DHT22;26089;43.538;5.250;2022-11-04T13:37:13;17.30;99.90
16289;DHT22;26089;43.538;5.250;2022-11-04T13:39:45;17.30;99.90
16289;DHT22;26089;43.538;5.250;2022-11-04T13:45:14;17.20;99.90
16289;DHT22;26089;43.538;5.250;2022-11-04T13:47:45;16.40;99.90
16289;DHT22;26089;43.538;5.250;2022-11-04T13:50:32;15.80;99.90
16289;DHT22;26089;43.538;5.250;2022-11-04T13:53:00;15.20;99.90
16289;DHT22;26089;43.538;5.250;2022-11-04T13:55:28;15.00;99.90
16289;DHT22;26089;43.538;5.250;2022-11-04T13:57:57;14.80;99.90
16289;DHT22;26089;43.538;5.250;2022-11-04T14:00:26;14.70;99.90
16289;DHT22;26089;43.538;5.250;2022-11-04T14:02:54;14.60;99.90
16289;DHT22;26089;43.538;5.250;2022-11-04T14:06:06;14.60;99.90
16289;DHT22;26089;43.538;5.250;2022-11-04T14:08:33;14.60;99.90
16289;DHT22;26089;43.538;5.250;2022-11-04T14:11:04;14.50;99.90
16289;DHT22;26089;43.538;5.250;2022-11-04T14:16:52;14.20;99.90
16289;DHT22;26089;43.538;5.250;2022-11-04T14:19:56;14.10;99.90
16289;DHT22;26089;43.538;5.250;2022-11-04T14:22:32;14.00;99.90
16289;DHT22;26089;43.538;5.250;2022-11-04T14:25:02;13.90;99.90
16289;DHT22;26089;43.538;5.250;2022-11-04T14:27:36;13.80;99.90
16289;DHT22;26089;43.538;5.250;2022-11-04T14:30:05;13.90;99.90
16289;DHT22;26089;43.538;5.250;2022-11-04T14:32:37;13.80;99.90
16289;DHT22;26089;43.538;5.250;2022-11-04T14:35:06;13.90;99.90
16289;DHT22;26089;43.538;5.250;2022-11-04T14:37:35;13.90;99.90
16289;DHT22;26089;43.538;5.250;2022-11-04T14:40:05;13.90;99.90
16289;DHT22;26089;43.538;5.250;2022-11-04T14:42:44;13.90;99.90
16289;DHT22;26089;43.538;5.250;2022-11-04T14:45:17;13.90;99.90
16289;DHT22;26089;43.538;5.250;2022-11-04T14:47:47;13.80;99.90
16289;DHT22;26089;43.538;5.250;2022-11-04T14:50:18;13.90;99.90
16289;DHT22;26089;43.538;5.250;2022-11-04T14:52:49;13.80;99.90
16289;DHT22;26089;43.538;5.250;2022-11-04T14:55:19;13.80;99.90
16289;DHT22;26089;43.538;5.250;2022-11-04T14:57:49;13.80;99.90
16289;DHT22;26089;43.538;5.250;2022-11-04T15:00:27;13.80;99.90
16289;DHT22;26089;43.538;5.250;2022-11-04T15:03:04;13.70;99.90
16289;DHT22;26089;43.538;5.250;2022-11-04T15:05:32;13.80;99.90
16289;DHT22;26089;43.538;5.250;2022-11-04T15:10:48;14.00;99.90
16289;DHT22;26089;43.538;5.250;2022-11-04T15:13:18;14.00;99.90
16289;DHT22;26089;43.538;5.250;2022-11-04T15:15:46;14.00;99.90
16289;DHT22;26089;43.538;5.250;2022-11-04T15:18:18;14.00;99.90
16289;DHT22;26089;43.538;5.250;2022-11-04T15:20:47;14.10;99.90
16289;DHT22;26089;43.538;5.250;2022-11-04T15:23:27;14.20;99.90
16289;DHT22;26089;43.538;5.250;2022-11-04T15:25:56;14.30;99.90
16289;DHT22;26089;43.538;5.250;2022-11-04T15:28:25;14.30;99.90
16289;DHT22;26089;43.538;5.250;2022-11-04T15:30:58;14.10;99.90
16289;DHT22;26089;43.538;5.250;2022-11-04T15:33:25;14.00;99.90
16289;DHT22;26089;43.538;5.250;2022-11-04T15:35:54;13.90;99.90
16289;DHT22;26089;43.538;5.250;2022-11-04T15:38:24;13.80;99.90
16289;DHT22;26089;43.538;5.250;2022-11-04T15:40:53;13.60;99.90
16289;DHT22;26089;43.538;5.250;2022-11-04T15:43:21;13.50;99.90
16289;DHT22;26089;43.538;5.250;2022-11-04T15:45:50;13.40;99.90
16289;DHT22;26089;43.538;5.250;2022-11-04T15:48:22;13.40;99.90
16289;DHT22;26089;43.538;5.250;2022-11-04T15:50:52;13.40;99.90
16289;DHT22;26089;43.538;5.250;2022-11-04T15:53:23;13.40;99.90
16289;DHT22;26089;43.538;5.250;2022-11-04T15:55:50;13.30;99.90
16289;DHT22;26089;43.538;5.250;2022-11-04T15:58:18;13.30;99.90
16289;DHT22;26089;43.538;5.250;2022-11-04T16:00:51;13.30;99.90
16289;DHT22;26089;43.538;5.250;2022-11-04T16:03:20;13.20;99.90
16289;DHT22;26089;43.538;5.250;2022-11-04T16:06:03;13.30;99.90
16289;DHT22;26089;43.538;5.250;2022-11-04T16:08:33;13.20;99.90
16289;DHT22;26089;43.538;5.250;2022-11-04T16:11:14;13.10;99.90
16289;DHT22;26089;43.538;5.250;2022-11-04T16:13:42;13.00;99.90
16289;DHT22;26089;43.538;5.250;2022-11-04T16:16:20;13.00;99.90
16289;DHT22;26089;43.538;5.250;2022-11-04T16:18:51;12.90;99.90
16289;DHT22;26089;43.538;5.250;2022-11-04T16:21:25;12.80;99.90
16289;DHT22;26089;43.538;5.250;2022-11-04T16:23:57;12.80;99.90
16289;DHT22;26089;43.538;5.250;2022-11-04T16:26:29;12.70;99.90
16289;DHT22;26089;43.538;5.250;2022-11-04T16:28:58;12.60;99.90
16289;DHT22;26089;43.538;5.250;2022-11-04T16:31:32;12.50;99.90
16289;DHT22;26089;43.538;5.250;2022-11-04T16:33:59;12.50;99.90
16289;DHT22;26089;43.538;5.250;2022-11-04T16:36:26;12.50;99.90
16289;DHT22;26089;43.538;5.250;2022-11-04T16:38:56;12.50;99.90